Embarrass, Wisconsin
Current Conditions -  °F | °C
As of 3:55 AM on Saturday 29 Nov 2014 (Local Time) from KCLI Reporting Station
Haze Haze  
Wind Chill: 27°   Ceiling: 800
Heat Index: 27°   Visibility: 5mi
Dew Point: 25°   Wind: 0mph
Humidity: 93%   Direction: NA
Pressure: 29.73"   Gusts: NA
Location:  44.67°N, 88.71°W
Report Text: KCLI 290955Z AUTO 00000KT 5SM BR OVC008 M03/M04 A2973 RMK AO2
Loading
Personal Weather Stations






























Interactive Weather Map New forecast layout! Learn more

10-Day Weather Forecast

Advertisements
Track Severe Weather on mobile